Time;durP1;ratioP1;P1;durP2;ratioP2;P2;SDS_P1;SDS_P2;PMS_P1;PMS_P2;Temp;Humidity;BMP_temperature;BMP_pressure;BME280_temperature;BME280_humidity;BME280_pressure;Samples;Min_cycle;Max_cycle;Signal;HPM_P1;HPM_P2
2021/10/12 00:01:01;;;;;;;15.75;5.10;;;;;;;12.02;100.00;102374.41;5123096;27;20038;-60
2021/10/12 00:03:26;;;;;;;14.93;4.07;;;;;;;11.94;100.00;102376.19;5123996;27;20111;-61
2021/10/12 00:05:52;;;;;;;18.35;4.10;;;;;;;11.93;100.00;102371.84;5121560;27;20036;-61
2021/10/12 00:08:18;;;;;;;14.93;3.88;;;;;;;11.85;100.00;102370.84;5116305;27;20096;-61
2021/10/12 00:10:44;;;;;;;12.13;4.13;;;;;;;11.88;100.00;102365.16;5101069;28;20031;-60
2021/10/12 00:13:10;;;;;;;20.98;4.65;;;;;;;11.91;100.00;102369.34;5101373;28;20115;-62
2021/10/12 00:15:35;;;;;;;18.85;4.38;;;;;;;11.84;100.00;102373.69;5114270;28;20473;-60
2021/10/12 00:18:01;;;;;;;22.23;4.32;;;;;;;11.86;100.00;102366.31;5097582;28;20061;-60
2021/10/12 00:20:27;;;;;;;21.98;4.75;;;;;;;11.88;100.00;102361.66;5092459;28;20028;-60
2021/10/12 00:22:53;;;;;;;14.02;3.78;;;;;;;11.75;100.00;102351.38;5093710;28;20046;-61
2021/10/12 00:25:18;;;;;;;15.85;4.43;;;;;;;11.83;100.00;102362.13;5095428;28;20065;-62
2021/10/12 00:27:44;;;;;;;21.33;4.35;;;;;;;11.85;100.00;102353.91;5095592;28;20126;-61
2021/10/12 00:30:11;;;;;;;17.27;4.27;;;;;;;11.82;100.00;102352.41;5113824;28;20478;-61
2021/10/12 00:32:37;;;;;;;30.17;5.22;;;;;;;11.85;100.00;102349.41;5113777;28;20387;-61
2021/10/12 00:35:04;;;;;;;19.27;5.30;;;;;;;11.77;100.00;102349.41;5113447;28;20062;-60
2021/10/12 00:37:29;;;;;;;26.97;5.63;;;;;;;11.86;100.00;102348.41;5113995;28;20498;-60
2021/10/12 00:39:55;;;;;;;17.02;4.65;;;;;;;11.81;100.00;102349.91;5112276;28;20272;-60
2021/10/12 00:42:21;;;;;;;20.23;3.78;;;;;;;11.87;100.00;102331.31;5113780;28;20035;-61
2021/10/12 00:44:47;;;;;;;20.63;3.72;;;;;;;11.85;100.00;102327.09;5099364;28;20119;-61
2021/10/12 00:47:12;;;;;;;9.88;3.05;;;;;;;11.94;100.00;102336.00;5075088;28;20466;-60
2021/10/12 00:49:38;;;;;;;14.73;3.70;;;;;;;11.91;100.00;102327.28;5093561;28;20039;-61
2021/10/12 00:52:04;;;;;;;9.55;2.53;;;;;;;11.94;100.00;102331.47;5091607;28;20044;-61
2021/10/12 00:54:30;;;;;;;12.63;3.13;;;;;;;11.90;100.00;102327.47;5093015;28;20062;-62
2021/10/12 00:56:56;;;;;;;14.38;2.95;;;;;;;11.86;100.00;102324.28;5092923;28;20040;-61
2021/10/12 00:59:22;;;;;;;10.57;2.75;;;;;;;11.88;100.00;102324.94;5092001;28;20497;-61
2021/10/12 01:01:48;;;;;;;14.90;2.90;;;;;;;11.87;100.00;102325.09;5093421;28;20112;-60
2021/10/12 01:04:14;;;;;;;13.68;3.13;;;;;;;11.88;100.00;102327.63;5092902;28;20040;-59
2021/10/12 01:06:40;;;;;;;15.45;3.30;;;;;;;11.85;100.00;102311.88;5093104;28;20028;-62
2021/10/12 01:09:06;;;;;;;7.28;2.05;;;;;;;11.82;100.00;102317.56;5074818;28;20058;-60
2021/10/12 01:11:34;;;;;;;19.40;3.30;;;;;;;11.91;100.00;102315.72;5092939;28;20532;-62
2021/10/12 01:14:01;;;;;;;12.93;2.83;;;;;;;11.90;100.00;102312.19;5092734;28;20382;-61
2021/10/12 01:16:27;;;;;;;17.53;3.70;;;;;;;11.83;100.00;102305.84;5092908;28;20268;-62
2021/10/12 01:19:00;;;;;;;11.10;2.53;;;;;;;11.90;100.00;102298.78;5092537;28;20275;-60
2021/10/12 01:21:36;;;;;;;22.30;3.43;;;;;;;11.87;100.00;102299.13;5094587;28;20046;-61
2021/10/12 01:24:03;;;;;;;16.98;3.80;;;;;;;11.79;100.00;102285.75;5095563;28;20598;-62
2021/10/12 01:26:29;;;;;;;15.38;2.88;;;;;;;11.73;100.00;102289.06;5097000;28;20031;-61
2021/10/12 01:28:55;;;;;;;20.23;3.38;;;;;;;11.85;100.00;102284.22;5097012;28;20040;-59
2021/10/12 01:31:25;;;;;;;18.27;2.72;;;;;;;11.74;100.00;102277.34;5096901;28;20077;-61
2021/10/12 01:33:52;;;;;;;23.33;3.10;;;;;;;11.70;100.00;102271.50;5078850;28;20040;-61
2021/10/12 01:36:17;;;;;;;;;;;;;;;11.67;100.00;102273.69;5096758;28;20753;-61
2021/10/12 01:38:44;;;;;;;12.43;2.57;;;;;;;11.70;100.00;102270.66;5096847;28;19941;-60
2021/10/12 01:41:10;;;;;;;13.68;2.83;;;;;;;11.70;100.00;102267.97;5095278;28;20040;-61
2021/10/12 01:43:36;;;;;;;12.45;2.60;;;;;;;11.72;100.00;102263.28;5095503;28;20392;-61
2021/10/12 01:46:03;;;;;;;10.45;3.08;;;;;;;11.58;100.00;102259.44;5096162;28;20020;-60
2021/10/12 01:48:29;;;;;;;16.50;3.07;;;;;;;11.52;100.00;102265.47;5096764;28;20077;-61
2021/10/12 01:50:55;;;;;;;18.02;2.90;;;;;;;11.58;100.00;102262.97;5096623;28;20244;-61
2021/10/12 01:53:20;;;;;;;17.80;3.08;;;;;;;11.57;100.00;102260.44;5095598;28;20036;-61
2021/10/12 01:55:46;;;;;;;7.35;2.47;;;;;;;11.57;100.00;102261.28;5095341;28;20039;-61
2021/10/12 01:58:12;;;;;;;15.55;2.50;;;;;;;11.57;100.00;102258.63;5095049;28;20056;-61
2021/10/12 02:00:38;;;;;;;17.23;3.08;;;;;;;11.55;100.00;102255.25;5078194;28;20388;-62
2021/10/12 02:03:04;;;;;;;8.60;2.28;;;;;;;11.56;100.00;102254.25;5107187;28;20514;-61
2021/10/12 02:05:29;;;;;;;18.70;3.22;;;;;;;11.55;100.00;102252.59;5116778;28;20031;-61
2021/10/12 02:07:55;;;;;;;11.30;3.05;;;;;;;11.59;100.00;102259.28;5110614;28;20034;-61
2021/10/12 02:10:21;;;;;;;20.83;2.72;;;;;;;11.54;100.00;102258.94;5094978;28;20036;-61
2021/10/12 02:12:46;;;;;;;12.00;2.38;;;;;;;11.56;100.00;102250.72;5094872;28;20059;-62
2021/10/12 02:15:13;;;;;;;14.15;3.20;;;;;;;11.57;100.00;102236.31;5094949;28;20066;-60
2021/10/12 02:17:39;;;;;;;13.77;2.20;;;;;;;11.65;100.00;102224.78;5095921;28;20119;-61
2021/10/12 02:20:06;;;;;;;7.95;2.55;;;;;;;11.63;100.00;102219.56;5096065;28;20137;-60
2021/10/12 02:22:32;;;;;;;12.27;1.90;;;;;;;11.51;100.00;102232.47;5096127;28;20036;-60
2021/10/12 02:24:58;;;;;;;8.10;2.22;;;;;;;11.45;100.00;102222.44;5106521;28;20617;-62
2021/10/12 02:27:24;;;;;;;15.07;2.95;;;;;;;11.56;100.00;102221.25;5115914;28;20092;-61
2021/10/12 02:29:50;;;;;;;8.25;2.20;;;;;;;11.80;100.00;102222.25;5114995;28;20475;-61
2021/10/12 02:32:16;;;;;;;8.60;2.58;;;;;;;12.30;100.00;102213.09;5116082;28;20043;-61
2021/10/12 02:34:42;;;;;;;10.60;2.23;;;;;;;12.37;100.00;102226.66;5114944;28;20036;-62
2021/10/12 02:37:08;;;;;;;7.32;2.13;;;;;;;12.48;100.00;102217.41;5115820;28;20277;-60
2021/10/12 02:39:34;;;;;;;16.30;2.22;;;;;;;12.64;100.00;102204.94;5115981;28;20046;-61
2021/10/12 02:42:00;;;;;;;14.82;2.35;;;;;;;12.43;100.00;102206.34;5114876;28;20502;-61
2021/10/12 02:44:26;;;;;;;17.00;2.28;;;;;;;12.40;100.00;102202.16;5115723;28;20036;-61
2021/10/12 02:46:51;;;;;;;8.27;2.38;;;;;;;12.38;100.00;102196.13;5114633;28;20345;-62
2021/10/12 02:49:17;;;;;;;18.13;2.80;;;;;;;12.49;100.00;102197.59;5114554;28;20031;-61
2021/10/12 02:51:42;;;;;;;14.07;2.40;;;;;;;11.81;100.00;102197.97;5115929;28;20443;-62
2021/10/12 02:54:08;;;;;;;14.82;2.40;;;;;;;11.41;100.00;102186.28;5114500;28;20272;-62
2021/10/12 02:56:34;;;;;;;14.30;3.23;;;;;;;11.40;100.00;102185.41;5115735;28;20384;-62
2021/10/12 02:58:59;;;;;;;20.52;3.78;;;;;;;11.31;100.00;102181.09;5115542;28;20264;-61
2021/10/12 03:01:25;;;;;;;8.93;2.35;;;;;;;11.24;100.00;102180.91;5115330;28;20031;-61
2021/10/12 03:03:51;;;;;;;12.45;2.17;;;;;;;11.25;100.00;102171.88;5115577;28;20031;-62
2021/10/12 03:06:16;;;;;;;14.67;2.37;;;;;;;11.22;100.00;102177.56;5115173;28;20028;-61
2021/10/12 03:08:42;;;;;;;10.82;2.75;;;;;;;11.21;100.00;102165.19;5115715;28;20099;-61
2021/10/12 03:11:07;;;;;;;15.40;3.28;;;;;;;11.10;100.00;102163.66;5115319;28;20035;-61
2021/10/12 03:13:33;;;;;;;19.37;3.53;;;;;;;11.21;100.00;102159.00;5115344;28;20063;-61
2021/10/12 03:15:58;;;;;;;16.33;3.13;;;;;;;11.10;100.00;102163.66;5115421;28;20093;-61
2021/10/12 03:18:24;;;;;;;15.50;2.58;;;;;;;11.14;100.00;102161.50;5113822;28;20449;-61
2021/10/12 03:20:49;;;;;;;17.38;2.95;;;;;;;11.15;100.00;102155.16;5115368;28;20047;-61
2021/10/12 03:23:15;;;;;;;7.63;1.98;;;;;;;11.04;100.00;102149.09;5113776;28;20039;-61
2021/10/12 03:25:40;;;;;;;13.90;1.87;;;;;;;11.11;100.00;102146.59;5113517;28;20490;-61
2021/10/12 03:28:06;;;;;;;8.47;2.10;;;;;;;11.11;100.00;102143.09;5115149;28;20035;-61
2021/10/12 03:30:32;;;;;;;9.40;1.80;;;;;;;11.03;100.00;102142.06;5113581;28;20040;-61
2021/10/12 03:32:57;;;;;;;12.13;2.20;;;;;;;11.01;100.00;102141.41;5115157;28;20070;-61
2021/10/12 03:35:30;;;;;;;9.48;2.67;;;;;;;11.21;100.00;102138.41;5114645;28;20079;-61
2021/10/12 03:37:56;;;;;;;6.87;2.70;;;;;;;11.93;100.00;102125.22;5114978;28;20039;-61
2021/10/12 03:40:22;;;;;;;6.68;1.98;;;;;;;11.58;100.00;102134.34;5114308;28;20289;-61
2021/10/12 03:42:48;;;;;;;9.90;2.92;;;;;;;11.36;100.00;102137.75;5114870;28;20040;-60
2021/10/12 03:45:13;;;;;;;16.33;2.05;;;;;;;11.33;100.00;102134.38;5113874;28;20114;-60
2021/10/12 03:47:39;;;;;;;10.82;2.92;;;;;;;11.77;100.00;102133.13;5115010;28;20423;-62
2021/10/12 03:50:05;;;;;;;13.18;2.53;;;;;;;12.00;100.00;102123.53;5096640;28;20066;-61
2021/10/12 03:52:31;;;;;;;16.30;3.25;;;;;;;12.03;100.00;102121.34;5114314;28;20028;-60
2021/10/12 03:54:56;;;;;;;18.30;3.37;;;;;;;12.08;100.00;102122.66;5114454;28;20076;-62
2021/10/12 03:57:22;;;;;;;16.90;2.93;;;;;;;12.15;100.00;102119.13;5079086;28;20027;-61
2021/10/12 03:59:48;;;;;;;13.77;3.38;;;;;;;12.08;100.00;102118.16;5113365;28;20663;-62
2021/10/12 04:02:13;;;;;;;14.50;2.90;;;;;;;11.99;100.00;102114.63;5113070;28;20046;-60
2021/10/12 04:04:39;;;;;;;13.30;2.70;;;;;;;12.18;100.00;102104.53;5114321;28;20283;-61
2021/10/12 04:07:05;;;;;;;8.77;2.28;;;;;;;12.12;100.00;102097.19;5114367;28;20628;-62
2021/10/12 04:09:31;;;;;;;16.88;2.58;;;;;;;12.13;100.00;102099.69;5113960;28;20115;-61
2021/10/12 04:11:57;;;;;;;10.32;2.65;;;;;;;11.96;100.00;102092.69;5114203;28;20043;-61
2021/10/12 04:14:23;;;;;;;11.45;2.83;;;;;;;11.96;100.00;102087.31;5114263;28;20028;-61
2021/10/12 04:16:48;;;;;;;14.52;3.50;;;;;;;11.92;100.00;102086.84;5113215;28;20036;-61
2021/10/12 04:19:14;;;;;;;14.38;2.85;;;;;;;11.98;100.00;102082.63;5113853;27;20362;-60
2021/10/12 04:21:39;;;;;;;8.37;2.43;;;;;;;11.11;100.00;102076.97;5112994;28;20023;-61
2021/10/12 04:24:05;;;;;;;35.03;3.78;;;;;;;11.25;100.00;102085.34;5114421;28;20474;-61
2021/10/12 04:26:31;;;;;;;11.68;2.30;;;;;;;11.25;100.00;102074.66;5112279;28;20028;-61
2021/10/12 04:28:56;;;;;;;16.30;2.63;;;;;;;11.19;100.00;102087.72;5113814;28;20041;-62
2021/10/12 04:31:22;;;;;;;12.18;3.38;;;;;;;11.49;100.00;102081.78;5113406;28;20296;-60
2021/10/12 04:33:48;;;;;;;16.73;3.45;;;;;;;11.11;100.00;102078.84;5114042;27;20406;-61
2021/10/12 04:36:13;;;;;;;11.07;2.97;;;;;;;11.50;100.00;102071.91;5112370;28;20126;-60
2021/10/12 04:38:40;;;;;;;8.88;2.83;;;;;;;11.73;100.00;102078.22;5095473;28;20039;-61
2021/10/12 04:41:07;;;;;;;12.93;3.00;;;;;;;11.63;100.00;102077.56;5113638;28;20035;-62
2021/10/12 04:43:33;;;;;;;12.65;3.60;;;;;;;11.09;100.00;102070.97;5113935;28;20474;-61
2021/10/12 04:45:58;;;;;;;16.08;3.22;;;;;;;11.00;100.00;102070.13;5119104;27;20116;-61
2021/10/12 04:48:24;;;;;;;37.58;4.57;;;;;;;11.05;100.00;102067.78;5120079;27;20088;-60
2021/10/12 04:50:50;;;;;;;13.20;3.07;;;;;;;10.94;100.00;102061.94;5118352;27;20104;-61
2021/10/12 04:53:16;;;;;;;;;;;;;;;11.19;100.00;102077.00;5115000;27;20130;-61
2021/10/12 04:55:41;;;;;;;15.97;3.93;;;;;;;11.45;100.00;102053.66;5116618;27;20380;-60
2021/10/12 04:58:10;;;;;;;10.77;4.18;;;;;;;11.04;100.00;102055.41;5134895;27;20035;-61
2021/10/12 05:00:37;;;;;;;15.90;5.70;;;;;;;11.01;100.00;102063.78;5127465;27;20024;-62
2021/10/12 05:03:03;;;;;;;16.50;5.37;;;;;;;11.05;100.00;102067.78;5125476;27;20490;-63
2021/10/12 05:05:29;;;;;;;15.38;5.45;;;;;;;11.67;100.00;102057.47;5122905;27;20276;-62
2021/10/12 05:07:54;;;;;;;18.48;5.93;;;;;;;11.74;100.00;102057.59;5132057;27;20050;-61
2021/10/12 05:10:20;;;;;;;21.07;6.63;;;;;;;11.67;100.00;102052.13;5135652;27;20024;-62
2021/10/12 05:12:47;;;;;;;18.37;7.20;;;;;;;11.63;100.00;102050.75;5134868;28;20283;-62
2021/10/12 05:15:19;;;;;;;20.33;7.53;;;;;;;11.70;100.00;102048.22;5132123;28;20286;-61
2021/10/12 05:17:47;;;;;;;20.00;7.10;;;;;;;11.73;100.00;102048.72;5132549;28;20039;-62
2021/10/12 05:20:15;;;;;;;22.10;7.53;;;;;;;11.88;100.00;102038.09;5131180;28;20259;-62
2021/10/12 05:22:40;;;;;;;26.55;8.13;;;;;;;11.86;100.00;102036.59;5128795;28;20279;-60
2021/10/12 05:25:06;;;;;;;21.63;8.30;;;;;;;11.82;100.00;102030.78;5115799;28;20031;-61
2021/10/12 05:27:33;;;;;;;31.42;9.00;;;;;;;11.95;100.00;102024.84;5129073;28;20035;-62
2021/10/12 05:29:58;;;;;;;24.33;9.70;;;;;;;11.89;100.00;102023.69;5133899;27;20035;-61
2021/10/12 05:32:25;;;;;;;23.63;9.90;;;;;;;11.91;100.00;102016.31;5126277;28;20762;-61
2021/10/12 05:34:50;;;;;;;27.55;10.45;;;;;;;11.89;100.00;102021.00;5114958;28;20487;-62
2021/10/12 05:37:17;;;;;;;26.20;11.60;;;;;;;11.87;100.00;102017.69;5116720;27;20036;-61
2021/10/12 05:39:43;;;;;;;31.13;11.63;;;;;;;11.85;100.00;102017.03;5112465;28;20721;-61
2021/10/12 05:42:09;;;;;;;40.05;12.18;;;;;;;11.97;100.00;102019.28;5092828;28;20030;-62
2021/10/12 05:44:34;;;;;;;24.30;11.97;;;;;;;11.93;100.00;102012.63;5132316;28;20027;-60
2021/10/12 05:47:00;;;;;;;22.93;12.63;;;;;;;12.00;100.00;102014.44;5127538;27;20479;-61
2021/10/12 05:49:25;;;;;;;29.20;13.07;;;;;;;11.96;100.00;102009.59;5133491;27;20042;-61
2021/10/12 05:51:51;;;;;;;30.67;13.85;;;;;;;11.98;100.00;101999.50;5100193;28;20024;-60
2021/10/12 05:54:18;;;;;;;31.88;14.70;;;;;;;12.01;100.00;102000.03;5095419;28;20055;-61
2021/10/12 05:56:56;;;;;;;29.63;14.97;;;;;;;11.98;100.00;101997.69;5110766;28;20393;-61
2021/10/12 05:59:21;;;;;;;39.20;14.63;;;;;;;12.04;100.00;101996.19;5097260;28;20351;-61
2021/10/12 06:01:47;;;;;;;59.10;16.15;;;;;;;12.09;100.00;101990.28;5112698;28;20405;-60
2021/10/12 06:04:12;;;;;;;35.30;15.43;;;;;;;12.09;100.00;101991.13;5111624;28;20035;-62
2021/10/12 06:06:38;;;;;;;39.60;15.50;;;;;;;12.05;100.00;101995.16;5117955;28;20391;-60
2021/10/12 06:09:05;;;;;;;32.88;15.02;;;;;;;11.36;100.00;101990.44;5104650;28;20082;-61
2021/10/12 06:11:31;;;;;;;36.63;16.80;;;;;;;11.31;100.00;101989.09;5114028;27;20031;-60
2021/10/12 06:13:56;;;;;;;31.85;15.55;;;;;;;11.88;100.00;101986.38;5120793;27;20267;-61
2021/10/12 06:16:23;;;;;;;35.28;15.10;;;;;;;11.99;100.00;101979.75;5131080;27;20484;-62
2021/10/12 06:18:48;;;;;;;;;;;;;;;12.07;100.00;101981.56;5118668;27;20038;-61
2021/10/12 06:21:14;;;;;;;34.93;14.13;;;;;;;11.69;100.00;101987.59;5130436;27;19911;-60
2021/10/12 06:23:40;;;;;;;28.15;13.60;;;;;;;12.05;100.00;101979.91;5136547;27;20027;-60
2021/10/12 06:26:06;;;;;;;35.70;15.60;;;;;;;11.58;100.00;101992.34;5130545;27;20039;-61
2021/10/12 06:28:32;;;;;;;42.10;15.60;;;;;;;12.01;100.00;101983.13;5136363;27;20409;-60
2021/10/12 06:30:58;;;;;;;34.97;15.80;;;;;;;11.56;100.00;101985.50;5132835;27;20031;-61
2021/10/12 06:33:23;;;;;;;33.97;15.38;;;;;;;11.45;100.00;101982.19;5136676;27;20115;-61
2021/10/12 06:35:49;;;;;;;36.03;16.38;;;;;;;11.60;100.00;101984.97;5132081;27;20382;-61
2021/10/12 06:38:14;;;;;;;32.73;16.70;;;;;;;11.65;100.00;101972.91;5134856;27;20039;-60
2021/10/12 06:40:40;;;;;;;35.40;16.00;;;;;;;11.64;100.00;101971.22;5132805;27;20024;-61
2021/10/12 06:43:06;;;;;;;38.60;16.52;;;;;;;11.64;100.00;101968.53;5133304;27;20739;-61
2021/10/12 06:45:32;;;;;;;35.17;15.85;;;;;;;12.24;100.00;101977.78;5132500;27;20466;-61
2021/10/12 06:47:57;;;;;;;35.28;15.52;;;;;;;12.17;100.00;101977.66;5133000;27;20064;-60
2021/10/12 06:50:23;;;;;;;37.47;17.80;;;;;;;12.16;100.00;101967.13;5132834;27;20040;-60
2021/10/12 06:52:49;;;;;;;33.45;15.68;;;;;;;12.11;100.00;101972.16;5124617;27;20342;-61
2021/10/12 06:55:15;;;;;;;35.05;17.60;;;;;;;12.25;100.00;101975.94;5131450;27;20080;-61
2021/10/12 06:57:42;;;;;;;33.95;17.02;;;;;;;12.13;100.00;101968.28;5135589;27;20472;-61
2021/10/12 07:00:11;;;;;;;39.27;18.27;;;;;;;12.29;100.00;101970.03;5117539;27;20031;-60
2021/10/12 07:02:37;;;;;;;41.20;19.30;;;;;;;11.75;100.00;101969.00;5135512;27;20264;-60
2021/10/12 07:05:03;;;;;;;45.90;17.88;;;;;;;11.71;100.00;101967.69;5135677;27;20247;-61
2021/10/12 07:07:31;;;;;;;47.47;18.20;;;;;;;11.80;100.00;101971.16;5135543;27;20118;-60
2021/10/12 07:09:57;;;;;;;34.30;17.43;;;;;;;11.78;100.00;101965.13;5124690;27;20039;-60
2021/10/12 07:12:23;;;;;;;41.83;17.98;;;;;;;11.73;100.00;101964.81;5130777;27;20268;-60
2021/10/12 07:14:48;;;;;;;39.60;17.77;;;;;;;11.81;100.00;101967.47;5135477;27;20525;-61
2021/10/12 07:17:14;;;;;;;36.43;16.07;;;;;;;11.84;100.00;101967.09;5134480;27;20126;-61
2021/10/12 07:19:39;;;;;;;35.38;16.23;;;;;;;11.81;100.00;101967.47;5134184;27;20076;-61
2021/10/12 07:22:05;;;;;;;43.17;16.13;;;;;;;11.89;100.00;101958.53;5135740;27;20042;-60
2021/10/12 07:24:30;;;;;;;47.73;16.30;;;;;;;12.01;100.00;101959.81;5134490;27;20031;-61
2021/10/12 07:26:56;;;;;;;38.17;16.77;;;;;;;12.00;100.00;101949.25;5135127;27;20307;-60
2021/10/12 07:29:21;;;;;;;37.67;16.97;;;;;;;12.04;100.00;101956.78;5134128;27;20448;-60
2021/10/12 07:31:47;;;;;;;42.53;16.93;;;;;;;12.03;100.00;101949.75;5133855;27;20118;-61
2021/10/12 07:34:13;;;;;;;37.45;18.00;;;;;;;12.50;100.00;101949.75;5135280;27;20347;-61
2021/10/12 07:36:38;;;;;;;38.33;16.48;;;;;;;12.70;100.00;101952.75;5134498;27;20456;-60
2021/10/12 07:39:06;;;;;;;45.65;16.45;;;;;;;12.72;100.00;101952.56;5128233;27;20054;-60
2021/10/12 07:41:33;;;;;;;32.40;16.03;;;;;;;12.84;100.00;101958.31;5114529;28;20111;-62
2021/10/12 07:43:58;;;;;;;29.10;15.23;;;;;;;12.52;100.00;101944.19;5114535;28;20256;-61
2021/10/12 07:46:25;;;;;;;33.75;14.18;;;;;;;12.45;100.00;101957.50;5120766;27;20309;-60
2021/10/12 07:48:53;;;;;;;38.80;16.00;;;;;;;12.39;100.00;101942.97;5134812;27;20073;-61
2021/10/12 07:51:21;;;;;;;31.37;14.43;;;;;;;12.53;100.00;101949.38;5133313;27;20271;-60
2021/10/12 07:53:47;;;;;;;33.07;13.80;;;;;;;12.54;100.00;101939.50;5134693;27;20267;-60
2021/10/12 07:56:19;;;;;;;36.28;15.88;;;;;;;12.74;100.00;101932.59;5134994;27;20266;-62
2021/10/12 07:58:44;;;;;;;39.37;14.43;;;;;;;12.94;100.00;101940.13;5134921;27;20066;-61
2021/10/12 08:01:10;;;;;;;34.95;13.90;;;;;;;13.04;100.00;101943.34;5134646;27;20720;-60
2021/10/12 08:03:35;;;;;;;32.30;14.18;;;;;;;13.01;100.00;101941.03;5134616;27;20156;-61
2021/10/12 08:06:01;;;;;;;42.42;17.20;;;;;;;13.02;100.00;101937.31;5134880;27;20027;-60
2021/10/12 08:08:27;;;;;;;40.28;12.80;;;;;;;13.17;100.00;101937.31;5133308;27;20042;-61
2021/10/12 08:10:53;;;;;;;38.53;14.15;;;;;;;13.28;100.00;101929.84;5134224;27;20039;-61
2021/10/12 08:13:21;;;;;;;40.10;13.03;;;;;;;13.47;100.00;101933.81;5133160;27;20430;-61
2021/10/12 08:15:51;;;;;;;42.90;15.87;;;;;;;13.82;100.00;101931.31;5133308;27;20282;-60
2021/10/12 08:18:20;;;;;;;32.70;13.73;;;;;;;13.54;100.00;101923.97;5134883;27;20264;-61
2021/10/12 08:20:49;;;;;;;34.40;11.30;;;;;;;13.56;100.00;101929.97;5132879;27;20285;-61
2021/10/12 08:23:16;;;;;;;39.97;12.73;;;;;;;13.82;100.00;101923.25;5134398;27;20050;-60
2021/10/12 08:25:41;;;;;;;41.67;11.93;;;;;;;13.99;100.00;101915.78;5132753;27;20370;-61
2021/10/12 08:28:07;;;;;;;31.52;8.98;;;;;;;14.06;100.00;101918.50;5125834;27;20047;-61
2021/10/12 08:30:32;;;;;;;25.23;8.37;;;;;;;14.00;100.00;101916.59;5097750;28;20434;-61
2021/10/12 08:33:00;;;;;;;24.20;7.70;;;;;;;13.88;100.00;101909.06;5113301;28;20282;-61
2021/10/12 08:35:27;;;;;;;39.92;7.90;;;;;;;13.68;100.00;101908.81;5102710;28;20744;-62
2021/10/12 08:37:52;;;;;;;70.15;8.95;;;;;;;13.69;100.00;101906.97;5093140;28;20092;-62
2021/10/12 08:40:18;;;;;;;39.88;6.78;;;;;;;13.51;100.00;101907.41;5093021;28;20085;-60
2021/10/12 08:42:48;;;;;;;53.60;7.88;;;;;;;13.46;100.00;101910.66;5092737;28;20492;-60
2021/10/12 08:45:14;;;;;;;49.10;8.80;;;;;;;13.34;100.00;101908.41;5095550;28;20028;-60
2021/10/12 08:47:40;;;;;;;30.03;6.90;;;;;;;13.32;100.00;101905.06;5113226;28;20268;-61
2021/10/12 08:50:12;;;;;;;24.03;7.57;;;;;;;13.30;100.00;101909.81;5122639;27;20258;-59
2021/10/12 08:52:37;;;;;;;31.43;6.77;;;;;;;13.17;100.00;101920.38;5122806;27;20721;-61
2021/10/12 08:55:05;;;;;;;14.48;6.35;;;;;;;13.22;100.00;101917.97;5123370;27;20259;-61
2021/10/12 08:57:43;;;;;;;32.87;8.13;;;;;;;13.16;100.00;101918.72;5123100;27;20024;-60
2021/10/12 09:00:15;;;;;;;26.30;6.43;;;;;;;13.12;100.00;101920.09;5122087;27;20371;-60
2021/10/12 09:02:56;;;;;;;30.60;6.97;;;;;;;13.04;100.00;101908.44;5119285;27;20812;-61
2021/10/12 09:05:24;;;;;;;31.90;6.30;;;;;;;13.02;100.00;101910.47;5119468;27;20347;-61
2021/10/12 09:07:50;;;;;;;27.97;7.47;;;;;;;13.12;100.00;101906.66;5120716;27;20263;-60
2021/10/12 09:10:23;;;;;;;20.15;5.88;;;;;;;13.19;100.00;101911.09;5123826;28;20263;-60
2021/10/12 09:12:49;;;;;;;27.87;6.30;;;;;;;13.23;100.00;101911.56;5123053;28;20038;-60
2021/10/12 09:15:15;;;;;;;;;;;;;;;13.23;100.00;101914.25;5121103;28;20319;-61
2021/10/12 09:17:42;;;;;;;26.47;6.23;;;;;;;13.25;100.00;101920.28;5107057;27;19908;-60
2021/10/12 09:20:10;;;;;;;26.42;5.88;;;;;;;13.28;100.00;101911.84;5095181;28;20314;-61
2021/10/12 09:22:38;;;;;;;23.13;5.57;;;;;;;13.30;100.00;101923.22;5103434;28;20036;-61
2021/10/12 09:25:10;;;;;;;21.50;5.60;;;;;;;13.27;100.00;101930.84;5123471;28;20239;-61
2021/10/12 09:27:56;;;;;;;36.23;6.17;;;;;;;13.33;100.00;101933.59;5123743;28;20260;-61
2021/10/12 09:30:48;;;;;;;22.93;4.67;;;;;;;13.50;100.00;101916.50;5122573;28;20311;-60
2021/10/12 09:33:13;;;;;;;18.23;4.57;;;;;;;13.80;100.00;101911.84;5127450;28;20655;-62
2021/10/12 09:35:41;;;;;;;17.83;4.40;;;;;;;13.93;100.00;101907.63;5133363;27;20275;-61
2021/10/12 09:38:09;;;;;;;14.27;3.13;;;;;;;13.88;100.00;101906.38;5130229;27;20032;-61
2021/10/12 09:40:38;;;;;;;17.03;3.83;;;;;;;13.33;100.00;101895.19;5120841;28;20248;-61
2021/10/12 09:43:04;;;;;;;13.07;3.80;;;;;;;13.25;100.00;101885.34;5121355;27;20302;-60
2021/10/12 09:45:37;;;;;;;12.02;3.42;;;;;;;13.38;100.00;101900.81;5126880;27;20267;-61
2021/10/12 09:48:22;;;;;;;20.47;3.50;;;;;;;13.30;100.00;101893.69;5126389;27;20100;-62
2021/10/12 09:50:48;;;;;;;12.90;2.97;;;;;;;13.77;100.00;101874.59;5133910;27;20260;-58
2021/10/12 09:53:31;;;;;;;16.77;4.00;;;;;;;14.07;100.00;101874.47;5133146;27;20305;-62
2021/10/12 09:55:57;;;;;;;11.10;3.47;;;;;;;14.15;100.00;101865.41;5132802;27;20084;-61
2021/10/12 09:58:23;;;;;;;14.48;2.80;;;;;;;14.19;100.00;101864.84;5137243;27;20781;-59
2021/10/12 10:00:49;;;;;;;7.50;2.60;;;;;;;13.99;100.00;101877.28;5118518;27;20028;-60
2021/10/12 10:03:15;;;;;;;15.88;3.17;;;;;;;14.18;100.00;101884.69;5103349;28;20469;-61
2021/10/12 10:05:42;;;;;;;14.30;3.20;;;;;;;14.20;100.00;101884.53;5094840;28;20107;-61
2021/10/12 10:08:07;;;;;;;;;;;;;;;14.48;100.00;101876.44;5098325;27;20274;-61
2021/10/12 10:10:33;;;;;;;15.17;3.27;;;;;;;15.13;100.00;101871.88;5125895;27;20435;-59
2021/10/12 10:12:59;;;;;;;16.45;3.58;;;;;;;15.96;100.00;101864.66;5124599;27;20019;-61
2021/10/12 10:15:25;;;;;;;16.80;4.97;;;;;;;16.93;100.00;101858.72;5124555;27;20134;-60
2021/10/12 10:17:51;;;;;;;14.23;3.65;;;;;;;17.32;100.00;101851.50;5095215;28;20118;-59
2021/10/12 10:20:17;;;;;;;14.30;4.10;;;;;;;18.91;100.00;101847.88;5096599;28;20039;-60
2021/10/12 10:22:55;;;;;;;8.77;2.85;;;;;;;18.67;100.00;101847.72;5094866;28;20050;-61
2021/10/12 10:25:40;;;;;;;9.47;2.10;;;;;;;18.17;100.00;101841.34;5095760;28;20108;-60
2021/10/12 10:28:18;;;;;;;10.50;2.27;;;;;;;19.51;100.00;101842.78;5111297;28;20031;-60
2021/10/12 10:30:46;;;;;;;8.67;3.00;;;;;;;20.66;100.00;101842.53;5125273;28;20035;-61
2021/10/12 10:33:25;;;;;;;6.03;1.37;;;;;;;20.26;100.00;101832.38;5127424;28;20028;-61
2021/10/12 10:35:56;;;;;;;4.87;1.20;;;;;;;20.43;100.00;101832.53;5123955;28;20043;-61
2021/10/12 10:38:32;;;;;;;7.30;1.63;;;;;;;21.14;100.00;101836.97;5121833;28;20445;-61
2021/10/12 10:41:04;;;;;;;6.45;1.15;;;;;;;19.62;100.00;101825.69;5126288;28;20038;-59
2021/10/12 10:43:48;;;;;;;4.43;1.30;;;;;;;20.56;100.00;101839.59;5111626;28;20040;-61
2021/10/12 10:46:32;;;;;;;6.37;2.07;;;;;;;19.45;100.00;101834.47;5108036;28;20024;-61
2021/10/12 10:49:23;;;;;;;6.23;1.30;;;;;;;18.75;100.00;101831.19;5105534;27;20055;-63
2021/10/12 10:52:01;;;;;;;6.37;1.70;;;;;;;18.49;100.00;101835.00;5095177;28;20063;-61
2021/10/12 10:54:36;;;;;;;5.53;1.13;;;;;;;17.99;100.00;101841.28;5101916;28;20039;-60
2021/10/12 10:57:16;;;;;;;5.63;1.47;;;;;;;18.32;100.00;101845.59;5100030;28;20036;-60
2021/10/12 10:59:42;;;;;;;4.00;1.33;;;;;;;18.25;100.00;101847.56;5101615;27;20048;-61
2021/10/12 11:02:26;;;;;;;3.53;1.47;;;;;;;17.75;100.00;101841.88;5136049;27;20061;-62
2021/10/12 11:04:52;;;;;;;3.30;0.97;;;;;;;17.28;100.00;101836.75;5104032;27;20073;-60
2021/10/12 11:07:19;;;;;;;6.30;1.30;;;;;;;17.15;100.00;101828.72;5092847;28;20024;-62
2021/10/12 11:09:45;;;;;;;10.07;1.37;;;;;;;16.88;100.00;101843.13;5093126;28;20268;-59